Cameron, New Mexico
Current Conditions -  °F | °C
As of 12:15 PM on Monday 20 Oct 2014 (Local Time) from KCVN Reporting Station
Broken Clouds Broken Clouds  
Wind Chill: 70°   Ceiling: 3100
Heat Index: 70°   Visibility: 10mi
Dew Point: 55°   Wind: 3mph
Humidity: 60%   Direction: 340°NNW
Pressure: 30.17"   Gusts: NA
Location:  34.7878°N, 103.316°W
Report Text: KCVN 201815Z AUTO 34003KT 10SM BKN031 21/13 A3017 RMK AO1
Loading
Personal Weather Stations






























Interactive Weather Map
Tropical Storm Tracking
New forecast layout! Learn more

10-Day Weather Forecast

Advertisements
Track Severe Weather on mobile